sensor_id;sensor_type;location;lat;lon;timestamp;P1;durP1;ratioP1;P2;durP2;ratioP2
26435;SDS011;15351;52.408;16.826;2024-02-14T00:00:32;40.90;;;25.10;;
26435;SDS011;15351;52.408;16.826;2024-02-14T00:03:19;41.50;;;24.20;;
26435;SDS011;15351;52.408;16.826;2024-02-14T00:05:47;39.00;;;24.40;;
26435;SDS011;15351;52.408;16.826;2024-02-14T00:08:14;42.40;;;26.30;;
26435;SDS011;15351;52.408;16.826;2024-02-14T00:10:50;41.70;;;25.20;;
26435;SDS011;15351;52.408;16.826;2024-02-14T00:13:19;38.70;;;24.70;;
26435;SDS011;15351;52.408;16.826;2024-02-14T00:15:46;38.40;;;23.40;;
26435;SDS011;15351;52.408;16.826;2024-02-14T00:18:17;37.60;;;23.30;;
26435;SDS011;15351;52.408;16.826;2024-02-14T00:20:46;39.70;;;24.10;;
26435;SDS011;15351;52.408;16.826;2024-02-14T00:23:13;39.00;;;23.80;;
26435;SDS011;15351;52.408;16.826;2024-02-14T00:28:23;37.00;;;23.40;;
26435;SDS011;15351;52.408;16.826;2024-02-14T00:30:55;39.00;;;24.20;;
26435;SDS011;15351;52.408;16.826;2024-02-14T00:33:22;39.70;;;24.20;;
26435;SDS011;15351;52.408;16.826;2024-02-14T00:35:49;38.30;;;24.10;;
26435;SDS011;15351;52.408;16.826;2024-02-14T00:38:15;38.50;;;24.10;;
26435;SDS011;15351;52.408;16.826;2024-02-14T00:40:43;40.00;;;25.00;;
26435;SDS011;15351;52.408;16.826;2024-02-14T00:43:22;38.30;;;23.80;;
26435;SDS011;15351;52.408;16.826;2024-02-14T00:45:50;37.20;;;23.70;;
26435;SDS011;15351;52.408;16.826;2024-02-14T00:48:17;36.80;;;23.30;;
26435;SDS011;15351;52.408;16.826;2024-02-14T00:50:59;37.30;;;23.80;;
26435;SDS011;15351;52.408;16.826;2024-02-14T00:53:25;37.00;;;24.10;;
26435;SDS011;15351;52.408;16.826;2024-02-14T00:55:53;39.30;;;24.40;;
26435;SDS011;15351;52.408;16.826;2024-02-14T00:58:20;38.30;;;23.90;;
26435;SDS011;15351;52.408;16.826;2024-02-14T01:00:47;39.00;;;24.20;;
26435;SDS011;15351;52.408;16.826;2024-02-14T01:03:13;39.30;;;24.50;;
26435;SDS011;15351;52.408;16.826;2024-02-14T01:05:42;38.80;;;24.30;;
26435;SDS011;15351;52.408;16.826;2024-02-14T01:08:10;37.90;;;24.00;;
26435;SDS011;15351;52.408;16.826;2024-02-14T01:10:41;38.20;;;24.40;;
26435;SDS011;15351;52.408;16.826;2024-02-14T01:13:09;41.40;;;25.20;;
26435;SDS011;15351;52.408;16.826;2024-02-14T01:15:35;41.10;;;25.90;;
26435;SDS011;15351;52.408;16.826;2024-02-14T01:18:05;41.20;;;25.80;;
26435;SDS011;15351;52.408;16.826;2024-02-14T01:20:33;43.10;;;26.30;;
26435;SDS011;15351;52.408;16.826;2024-02-14T01:22:59;41.00;;;25.50;;
26435;SDS011;15351;52.408;16.826;2024-02-14T01:25:30;41.60;;;25.30;;
26435;SDS011;15351;52.408;16.826;2024-02-14T01:27:56;42.50;;;25.70;;
26435;SDS011;15351;52.408;16.826;2024-02-14T01:30:25;41.40;;;26.00;;
26435;SDS011;15351;52.408;16.826;2024-02-14T01:32:52;41.40;;;25.50;;
26435;SDS011;15351;52.408;16.826;2024-02-14T01:35:20;39.10;;;24.20;;
26435;SDS011;15351;52.408;16.826;2024-02-14T01:37:49;40.70;;;24.60;;
26435;SDS011;15351;52.408;16.826;2024-02-14T01:40:19;39.20;;;25.10;;
26435;SDS011;15351;52.408;16.826;2024-02-14T01:42:47;38.30;;;23.90;;
26435;SDS011;15351;52.408;16.826;2024-02-14T01:45:17;40.10;;;25.10;;
26435;SDS011;15351;52.408;16.826;2024-02-14T01:48:01;39.30;;;25.10;;
26435;SDS011;15351;52.408;16.826;2024-02-14T01:50:29;38.90;;;25.20;;
26435;SDS011;15351;52.408;16.826;2024-02-14T01:52:58;39.30;;;25.00;;
26435;SDS011;15351;52.408;16.826;2024-02-14T01:55:28;37.90;;;25.10;;
26435;SDS011;15351;52.408;16.826;2024-02-14T01:58:01;39.00;;;24.60;;
26435;SDS011;15351;52.408;16.826;2024-02-14T02:00:30;38.40;;;25.10;;
26435;SDS011;15351;52.408;16.826;2024-02-14T02:02:59;41.70;;;25.80;;
26435;SDS011;15351;52.408;16.826;2024-02-14T02:05:26;40.90;;;25.70;;
26435;SDS011;15351;52.408;16.826;2024-02-14T02:08:15;41.60;;;26.20;;
26435;SDS011;15351;52.408;16.826;2024-02-14T02:10:43;41.30;;;26.20;;
26435;SDS011;15351;52.408;16.826;2024-02-14T02:13:13;43.80;;;27.40;;
26435;SDS011;15351;52.408;16.826;2024-02-14T02:16:00;44.90;;;28.30;;
26435;SDS011;15351;52.408;16.826;2024-02-14T02:18:32;47.30;;;28.20;;
26435;SDS011;15351;52.408;16.826;2024-02-14T02:21:18;50.30;;;30.00;;
26435;SDS011;15351;52.408;16.826;2024-02-14T02:23:51;50.70;;;30.80;;
26435;SDS011;15351;52.408;16.826;2024-02-14T02:26:17;53.40;;;31.10;;
26435;SDS011;15351;52.408;16.826;2024-02-14T02:28:44;53.80;;;31.80;;
26435;SDS011;15351;52.408;16.826;2024-02-14T02:31:11;56.00;;;32.10;;
26435;SDS011;15351;52.408;16.826;2024-02-14T02:33:39;54.60;;;31.90;;
26435;SDS011;15351;52.408;16.826;2024-02-14T02:36:06;53.10;;;31.00;;
26435;SDS011;15351;52.408;16.826;2024-02-14T02:38:33;52.70;;;30.90;;
26435;SDS011;15351;52.408;16.826;2024-02-14T02:40:59;53.80;;;31.40;;
26435;SDS011;15351;52.408;16.826;2024-02-14T02:43:29;57.60;;;31.50;;
26435;SDS011;15351;52.408;16.826;2024-02-14T02:46:20;57.70;;;31.90;;
26435;SDS011;15351;52.408;16.826;2024-02-14T02:48:50;53.10;;;31.70;;
26435;SDS011;15351;52.408;16.826;2024-02-14T02:51:24;56.00;;;32.30;;
26435;SDS011;15351;52.408;16.826;2024-02-14T02:53:51;57.50;;;33.00;;
26435;SDS011;15351;52.408;16.826;2024-02-14T02:56:22;59.30;;;33.80;;
26435;SDS011;15351;52.408;16.826;2024-02-14T02:58:55;55.30;;;33.50;;
26435;SDS011;15351;52.408;16.826;2024-02-14T03:01:36;59.70;;;37.10;;
26435;SDS011;15351;52.408;16.826;2024-02-14T03:04:05;65.80;;;38.70;;
26435;SDS011;15351;52.408;16.826;2024-02-14T03:06:39;67.70;;;41.70;;
26435;SDS011;15351;52.408;16.826;2024-02-14T03:09:06;70.30;;;41.90;;
26435;SDS011;15351;52.408;16.826;2024-02-14T03:11:40;67.50;;;41.60;;
26435;SDS011;15351;52.408;16.826;2024-02-14T03:14:07;68.50;;;41.70;;
26435;SDS011;15351;52.408;16.826;2024-02-14T03:16:35;69.50;;;41.70;;
26435;SDS011;15351;52.408;16.826;2024-02-14T03:19:05;74.90;;;43.20;;
26435;SDS011;15351;52.408;16.826;2024-02-14T03:21:31;68.80;;;41.50;;
26435;SDS011;15351;52.408;16.826;2024-02-14T03:24:02;69.70;;;41.20;;
26435;SDS011;15351;52.408;16.826;2024-02-14T03:26:31;64.30;;;40.60;;
26435;SDS011;15351;52.408;16.826;2024-02-14T03:29:00;68.10;;;41.90;;
26435;SDS011;15351;52.408;16.826;2024-02-14T03:31:27;67.00;;;40.70;;
26435;SDS011;15351;52.408;16.826;2024-02-14T03:33:53;63.70;;;38.40;;
26435;SDS011;15351;52.408;16.826;2024-02-14T03:36:40;67.60;;;40.60;;
26435;SDS011;15351;52.408;16.826;2024-02-14T03:39:08;65.60;;;40.30;;
26435;SDS011;15351;52.408;16.826;2024-02-14T03:41:37;67.50;;;40.70;;
26435;SDS011;15351;52.408;16.826;2024-02-14T03:44:03;67.40;;;40.40;;
26435;SDS011;15351;52.408;16.826;2024-02-14T03:46:30;65.70;;;40.70;;
26435;SDS011;15351;52.408;16.826;2024-02-14T03:48:56;64.30;;;39.30;;
26435;SDS011;15351;52.408;16.826;2024-02-14T03:51:25;67.30;;;41.30;;
26435;SDS011;15351;52.408;16.826;2024-02-14T03:53:54;70.80;;;42.90;;
26435;SDS011;15351;52.408;16.826;2024-02-14T03:56:21;70.00;;;42.60;;
26435;SDS011;15351;52.408;16.826;2024-02-14T03:58:47;70.20;;;42.80;;
26435;SDS011;15351;52.408;16.826;2024-02-14T04:01:16;69.40;;;42.50;;
26435;SDS011;15351;52.408;16.826;2024-02-14T04:03:46;68.50;;;43.00;;
26435;SDS011;15351;52.408;16.826;2024-02-14T04:06:19;68.80;;;43.50;;
26435;SDS011;15351;52.408;16.826;2024-02-14T04:08:47;73.70;;;44.40;;
26435;SDS011;15351;52.408;16.826;2024-02-14T04:11:14;73.30;;;44.40;;
26435;SDS011;15351;52.408;16.826;2024-02-14T04:13:45;74.70;;;46.10;;
26435;SDS011;15351;52.408;16.826;2024-02-14T04:16:18;76.00;;;45.10;;
26435;SDS011;15351;52.408;16.826;2024-02-14T04:18:47;75.70;;;45.60;;
26435;SDS011;15351;52.408;16.826;2024-02-14T04:21:17;75.80;;;45.60;;
26435;SDS011;15351;52.408;16.826;2024-02-14T04:23:43;73.60;;;45.30;;
26435;SDS011;15351;52.408;16.826;2024-02-14T04:26:10;71.80;;;43.90;;
26435;SDS011;15351;52.408;16.826;2024-02-14T04:28:48;69.20;;;42.80;;
26435;SDS011;15351;52.408;16.826;2024-02-14T04:31:14;67.70;;;41.10;;
26435;SDS011;15351;52.408;16.826;2024-02-14T04:33:41;64.00;;;39.50;;
26435;SDS011;15351;52.408;16.826;2024-02-14T04:36:10;61.60;;;37.90;;
26435;SDS011;15351;52.408;16.826;2024-02-14T04:38:41;62.00;;;37.50;;
26435;SDS011;15351;52.408;16.826;2024-02-14T04:41:10;64.90;;;39.00;;
26435;SDS011;15351;52.408;16.826;2024-02-14T04:43:36;70.00;;;42.30;;
26435;SDS011;15351;52.408;16.826;2024-02-14T04:46:06;71.80;;;42.70;;
26435;SDS011;15351;52.408;16.826;2024-02-14T04:48:34;77.70;;;46.70;;
26435;SDS011;15351;52.408;16.826;2024-02-14T04:51:03;81.00;;;48.40;;
26435;SDS011;15351;52.408;16.826;2024-02-14T04:53:33;78.80;;;47.30;;
26435;SDS011;15351;52.408;16.826;2024-02-14T04:56:36;77.20;;;46.90;;
26435;SDS011;15351;52.408;16.826;2024-02-14T04:59:06;75.70;;;44.70;;
26435;SDS011;15351;52.408;16.826;2024-02-14T05:01:35;70.10;;;42.70;;
26435;SDS011;15351;52.408;16.826;2024-02-14T05:04:27;69.40;;;42.20;;
26435;SDS011;15351;52.408;16.826;2024-02-14T05:06:56;66.80;;;39.80;;
26435;SDS011;15351;52.408;16.826;2024-02-14T05:09:23;64.30;;;39.00;;
26435;SDS011;15351;52.408;16.826;2024-02-14T05:12:14;58.20;;;37.50;;
26435;SDS011;15351;52.408;16.826;2024-02-14T05:14:47;58.80;;;36.40;;
26435;SDS011;15351;52.408;16.826;2024-02-14T05:17:20;59.50;;;36.50;;
26435;SDS011;15351;52.408;16.826;2024-02-14T05:20:24;56.30;;;34.90;;
26435;SDS011;15351;52.408;16.826;2024-02-14T05:22:52;54.80;;;34.20;;
26435;SDS011;15351;52.408;16.826;2024-02-14T05:25:23;52.10;;;34.80;;
26435;SDS011;15351;52.408;16.826;2024-02-14T05:27:51;52.80;;;35.80;;
26435;SDS011;15351;52.408;16.826;2024-02-14T05:30:28;59.80;;;38.00;;
26435;SDS011;15351;52.408;16.826;2024-02-14T05:33:07;75.50;;;47.10;;
26435;SDS011;15351;52.408;16.826;2024-02-14T05:35:37;88.40;;;53.70;;
26435;SDS011;15351;52.408;16.826;2024-02-14T05:38:06;88.70;;;52.20;;
26435;SDS011;15351;52.408;16.826;2024-02-14T05:40:35;114.90;;;61.70;;
26435;SDS011;15351;52.408;16.826;2024-02-14T05:43:06;81.60;;;45.80;;
26435;SDS011;15351;52.408;16.826;2024-02-14T05:45:36;67.50;;;39.80;;
26435;SDS011;15351;52.408;16.826;2024-02-14T05:48:03;71.00;;;40.20;;
26435;SDS011;15351;52.408;16.826;2024-02-14T05:50:31;67.10;;;40.60;;
26435;SDS011;15351;52.408;16.826;2024-02-14T05:53:03;79.70;;;45.20;;
26435;SDS011;15351;52.408;16.826;2024-02-14T05:55:31;88.90;;;49.00;;
26435;SDS011;15351;52.408;16.826;2024-02-14T05:58:21;99.40;;;52.50;;
26435;SDS011;15351;52.408;16.826;2024-02-14T06:00:47;78.90;;;44.50;;
26435;SDS011;15351;52.408;16.826;2024-02-14T06:03:33;89.50;;;50.70;;
26435;SDS011;15351;52.408;16.826;2024-02-14T06:06:01;86.60;;;49.60;;
26435;SDS011;15351;52.408;16.826;2024-02-14T06:08:28;82.00;;;48.90;;
26435;SDS011;15351;52.408;16.826;2024-02-14T06:10:57;93.70;;;54.30;;
26435;SDS011;15351;52.408;16.826;2024-02-14T06:13:25;85.90;;;52.00;;
26435;SDS011;15351;52.408;16.826;2024-02-14T06:15:53;85.80;;;51.40;;
26435;SDS011;15351;52.408;16.826;2024-02-14T06:18:21;110.20;;;62.00;;
26435;SDS011;15351;52.408;16.826;2024-02-14T06:20:48;95.90;;;53.80;;
26435;SDS011;15351;52.408;16.826;2024-02-14T06:23:16;67.00;;;40.70;;
26435;SDS011;15351;52.408;16.826;2024-02-14T06:25:43;65.70;;;41.60;;
26435;SDS011;15351;52.408;16.826;2024-02-14T06:28:13;72.50;;;44.80;;
26435;SDS011;15351;52.408;16.826;2024-02-14T06:30:40;84.50;;;50.70;;
26435;SDS011;15351;52.408;16.826;2024-02-14T06:33:08;101.00;;;55.40;;
26435;SDS011;15351;52.408;16.826;2024-02-14T06:35:37;89.10;;;54.60;;
26435;SDS011;15351;52.408;16.826;2024-02-14T06:38:05;73.10;;;45.30;;
26435;SDS011;15351;52.408;16.826;2024-02-14T06:41:26;59.80;;;37.70;;
26435;SDS011;15351;52.408;16.826;2024-02-14T06:43:55;55.20;;;34.70;;
26435;SDS011;15351;52.408;16.826;2024-02-14T06:46:25;52.00;;;32.00;;
26435;SDS011;15351;52.408;16.826;2024-02-14T06:48:52;49.70;;;31.10;;
26435;SDS011;15351;52.408;16.826;2024-02-14T06:51:20;45.20;;;29.30;;
26435;SDS011;15351;52.408;16.826;2024-02-14T06:53:50;46.60;;;30.20;;
26435;SDS011;15351;52.408;16.826;2024-02-14T06:56:16;52.30;;;34.20;;
26435;SDS011;15351;52.408;16.826;2024-02-14T06:58:43;45.70;;;29.70;;
26435;SDS011;15351;52.408;16.826;2024-02-14T07:01:39;44.60;;;30.10;;
26435;SDS011;15351;52.408;16.826;2024-02-14T07:04:15;48.00;;;31.10;;
26435;SDS011;15351;52.408;16.826;2024-02-14T07:06:41;45.10;;;30.40;;
26435;SDS011;15351;52.408;16.826;2024-02-14T07:09:08;46.70;;;30.60;;
26435;SDS011;15351;52.408;16.826;2024-02-14T07:11:35;44.90;;;30.70;;
26435;SDS011;15351;52.408;16.826;2024-02-14T07:14:04;47.50;;;31.40;;
26435;SDS011;15351;52.408;16.826;2024-02-14T07:16:31;51.40;;;33.30;;
26435;SDS011;15351;52.408;16.826;2024-02-14T07:18:57;48.70;;;31.60;;
26435;SDS011;15351;52.408;16.826;2024-02-14T07:21:36;51.70;;;32.40;;
26435;SDS011;15351;52.408;16.826;2024-02-14T07:24:04;49.90;;;31.60;;
26435;SDS011;15351;52.408;16.826;2024-02-14T07:26:31;51.10;;;31.80;;
26435;SDS011;15351;52.408;16.826;2024-02-14T07:28:58;49.40;;;32.10;;
26435;SDS011;15351;52.408;16.826;2024-02-14T07:31:24;48.60;;;31.60;;
26435;SDS011;15351;52.408;16.826;2024-02-14T07:33:56;48.60;;;31.50;;
26435;SDS011;15351;52.408;16.826;2024-02-14T07:36:23;50.20;;;32.20;;
26435;SDS011;15351;52.408;16.826;2024-02-14T07:38:51;46.90;;;30.90;;
26435;SDS011;15351;52.408;16.826;2024-02-14T07:41:21;44.80;;;29.60;;
26435;SDS011;15351;52.408;16.826;2024-02-14T07:43:50;46.20;;;30.10;;
26435;SDS011;15351;52.408;16.826;2024-02-14T07:46:18;45.80;;;29.60;;
26435;SDS011;15351;52.408;16.826;2024-02-14T07:48:49;44.10;;;28.70;;
26435;SDS011;15351;52.408;16.826;2024-02-14T07:51:21;48.40;;;29.90;;
26435;SDS011;15351;52.408;16.826;2024-02-14T07:53:48;45.50;;;29.70;;
26435;SDS011;15351;52.408;16.826;2024-02-14T07:56:16;44.50;;;29.10;;
26435;SDS011;15351;52.408;16.826;2024-02-14T07:58:44;46.00;;;29.90;;
26435;SDS011;15351;52.408;16.826;2024-02-14T08:01:13;43.20;;;29.70;;
26435;SDS011;15351;52.408;16.826;2024-02-14T08:03:41;47.70;;;30.00;;
26435;SDS011;15351;52.408;16.826;2024-02-14T08:06:09;44.50;;;29.20;;
26435;SDS011;15351;52.408;16.826;2024-02-14T08:08:35;47.30;;;31.70;;
26435;SDS011;15351;52.408;16.826;2024-02-14T08:11:02;47.00;;;32.20;;
26435;SDS011;15351;52.408;16.826;2024-02-14T08:13:28;52.70;;;36.00;;
26435;SDS011;15351;52.408;16.826;2024-02-14T08:15:55;50.50;;;33.60;;
26435;SDS011;15351;52.408;16.826;2024-02-14T08:18:24;49.00;;;32.70;;
26435;SDS011;15351;52.408;16.826;2024-02-14T08:20:54;44.10;;;30.00;;
26435;SDS011;15351;52.408;16.826;2024-02-14T08:23:20;43.90;;;30.00;;
26435;SDS011;15351;52.408;16.826;2024-02-14T08:25:47;43.30;;;29.20;;
26435;SDS011;15351;52.408;16.826;2024-02-14T08:28:15;42.30;;;29.20;;
26435;SDS011;15351;52.408;16.826;2024-02-14T08:30:44;41.70;;;28.40;;
26435;SDS011;15351;52.408;16.826;2024-02-14T08:33:10;41.40;;;28.40;;
26435;SDS011;15351;52.408;16.826;2024-02-14T08:35:37;39.50;;;27.00;;
26435;SDS011;15351;52.408;16.826;2024-02-14T08:38:03;39.30;;;26.80;;
26435;SDS011;15351;52.408;16.826;2024-02-14T08:40:29;38.50;;;26.80;;
26435;SDS011;15351;52.408;16.826;2024-02-14T08:42:58;39.50;;;26.80;;
26435;SDS011;15351;52.408;16.826;2024-02-14T08:45:24;39.20;;;26.20;;
26435;SDS011;15351;52.408;16.826;2024-02-14T08:47:51;38.70;;;26.10;;
26435;SDS011;15351;52.408;16.826;2024-02-14T08:50:17;36.10;;;24.20;;
26435;SDS011;15351;52.408;16.826;2024-02-14T08:52:44;34.80;;;24.10;;
26435;SDS011;15351;52.408;16.826;2024-02-14T08:55:10;34.30;;;23.10;;
26435;SDS011;15351;52.408;16.826;2024-02-14T08:57:42;35.70;;;23.70;;
26435;SDS011;15351;52.408;16.826;2024-02-14T09:00:11;33.30;;;23.10;;
26435;SDS011;15351;52.408;16.826;2024-02-14T09:02:40;33.50;;;22.40;;
26435;SDS011;15351;52.408;16.826;2024-02-14T09:05:07;31.70;;;21.40;;
26435;SDS011;15351;52.408;16.826;2024-02-14T09:07:36;30.30;;;21.00;;
26435;SDS011;15351;52.408;16.826;2024-02-14T09:10:04;34.00;;;21.70;;
26435;SDS011;15351;52.408;16.826;2024-02-14T09:12:33;32.10;;;20.70;;
26435;SDS011;15351;52.408;16.826;2024-02-14T09:15:00;30.40;;;20.60;;
26435;SDS011;15351;52.408;16.826;2024-02-14T09:17:31;32.70;;;21.00;;
26435;SDS011;15351;52.408;16.826;2024-02-14T09:19:57;33.60;;;22.30;;
26435;SDS011;15351;52.408;16.826;2024-02-14T09:22:24;34.10;;;22.70;;
26435;SDS011;15351;52.408;16.826;2024-02-14T09:24:52;31.00;;;20.70;;
26435;SDS011;15351;52.408;16.826;2024-02-14T09:27:19;32.40;;;21.00;;
26435;SDS011;15351;52.408;16.826;2024-02-14T09:29:46;32.70;;;20.60;;
26435;SDS011;15351;52.408;16.826;2024-02-14T09:32:13;28.90;;;20.10;;
26435;SDS011;15351;52.408;16.826;2024-02-14T09:34:44;28.80;;;19.90;;
26435;SDS011;15351;52.408;16.826;2024-02-14T09:37:13;29.30;;;20.00;;
26435;SDS011;15351;52.408;16.826;2024-02-14T09:39:40;28.60;;;20.50;;
26435;SDS011;15351;52.408;16.826;2024-02-14T09:42:11;31.00;;;20.10;;
26435;SDS011;15351;52.408;16.826;2024-02-14T09:44:40;29.20;;;19.20;;
26435;SDS011;15351;52.408;16.826;2024-02-14T09:47:08;29.90;;;19.70;;
26435;SDS011;15351;52.408;16.826;2024-02-14T09:49:37;27.90;;;19.10;;
26435;SDS011;15351;52.408;16.826;2024-02-14T09:52:06;28.30;;;18.50;;
26435;SDS011;15351;52.408;16.826;2024-02-14T09:54:37;26.10;;;18.60;;
26435;SDS011;15351;52.408;16.826;2024-02-14T09:57:07;26.40;;;17.90;;
26435;SDS011;15351;52.408;16.826;2024-02-14T09:59:38;25.60;;;17.80;;
26435;SDS011;15351;52.408;16.826;2024-02-14T10:02:06;25.80;;;17.40;;
26435;SDS011;15351;52.408;16.826;2024-02-14T10:04:36;24.10;;;17.00;;
26435;SDS011;15351;52.408;16.826;2024-02-14T10:07:06;25.60;;;17.30;;
26435;SDS011;15351;52.408;16.826;2024-02-14T10:09:42;23.50;;;17.40;;
26435;SDS011;15351;52.408;16.826;2024-02-14T10:12:09;23.00;;;16.50;;
26435;SDS011;15351;52.408;16.826;2024-02-14T10:14:36;26.30;;;16.40;;
26435;SDS011;15351;52.408;16.826;2024-02-14T10:17:16;23.10;;;16.80;;
26435;SDS011;15351;52.408;16.826;2024-02-14T10:19:56;23.30;;;16.30;;
26435;SDS011;15351;52.408;16.826;2024-02-14T10:22:36;25.80;;;17.00;;
26435;SDS011;15351;52.408;16.826;2024-02-14T10:25:03;23.20;;;16.80;;
26435;SDS011;15351;52.408;16.826;2024-02-14T10:27:38;24.10;;;16.40;;
26435;SDS011;15351;52.408;16.826;2024-02-14T10:30:12;23.70;;;17.00;;
26435;SDS011;15351;52.408;16.826;2024-02-14T10:32:58;25.40;;;17.00;;
26435;SDS011;15351;52.408;16.826;2024-02-14T10:35:27;27.70;;;17.50;;
26435;SDS011;15351;52.408;16.826;2024-02-14T10:38:00;27.00;;;17.40;;
26435;SDS011;15351;52.408;16.826;2024-02-14T10:40:32;24.80;;;17.70;;
26435;SDS011;15351;52.408;16.826;2024-02-14T10:43:02;24.80;;;17.60;;
26435;SDS011;15351;52.408;16.826;2024-02-14T10:45:31;24.10;;;16.60;;
26435;SDS011;15351;52.408;16.826;2024-02-14T10:50:43;23.10;;;16.80;;
26435;SDS011;15351;52.408;16.826;2024-02-14T10:53:15;27.00;;;17.30;;
26435;SDS011;15351;52.408;16.826;2024-02-14T10:55:47;26.20;;;16.50;;
26435;SDS011;15351;52.408;16.826;2024-02-14T10:58:18;24.10;;;16.70;;
26435;SDS011;15351;52.408;16.826;2024-02-14T11:00:52;25.80;;;16.90;;
26435;SDS011;15351;52.408;16.826;2024-02-14T11:03:40;25.90;;;16.80;;
26435;SDS011;15351;52.408;16.826;2024-02-14T11:06:27;21.50;;;15.30;;
26435;SDS011;15351;52.408;16.826;2024-02-14T11:09:00;22.90;;;15.30;;
26435;SDS011;15351;52.408;16.826;2024-02-14T11:11:34;21.90;;;15.40;;
26435;SDS011;15351;52.408;16.826;2024-02-14T11:14:03;22.00;;;15.10;;
26435;SDS011;15351;52.408;16.826;2024-02-14T11:16:30;21.70;;;15.00;;
26435;SDS011;15351;52.408;16.826;2024-02-14T11:19:10;21.60;;;14.50;;
26435;SDS011;15351;52.408;16.826;2024-02-14T11:28:18;20.40;;;14.30;;
26435;SDS011;15351;52.408;16.826;2024-02-14T11:31:38;20.30;;;14.00;;
26435;SDS011;15351;52.408;16.826;2024-02-14T11:34:56;20.10;;;14.30;;
26435;SDS011;15351;52.408;16.826;2024-02-14T11:38:17;19.30;;;13.40;;
26435;SDS011;15351;52.408;16.826;2024-02-14T11:45:49;17.40;;;11.60;;
26435;SDS011;15351;52.408;16.826;2024-02-14T11:57:16;16.40;;;10.30;;
26435;SDS011;15351;52.408;16.826;2024-02-14T12:03:12;18.50;;;11.20;;
26435;SDS011;15351;52.408;16.826;2024-02-14T12:06:39;18.90;;;11.60;;
26435;SDS011;15351;52.408;16.826;2024-02-14T12:09:11;20.90;;;12.20;;
26435;SDS011;15351;52.408;16.826;2024-02-14T12:11:50;21.10;;;12.70;;
26435;SDS011;15351;52.408;16.826;2024-02-14T12:17:50;20.20;;;12.50;;
26435;SDS011;15351;52.408;16.826;2024-02-14T12:20:25;20.00;;;12.50;;
26435;SDS011;15351;52.408;16.826;2024-02-14T12:23:45;17.70;;;11.80;;
26435;SDS011;15351;52.408;16.826;2024-02-14T12:30:11;18.90;;;12.40;;
26435;SDS011;15351;52.408;16.826;2024-02-14T12:33:00;17.60;;;12.30;;
26435;SDS011;15351;52.408;16.826;2024-02-14T12:35:34;19.50;;;12.70;;
26435;SDS011;15351;52.408;16.826;2024-02-14T12:38:15;18.00;;;12.50;;
26435;SDS011;15351;52.408;16.826;2024-02-14T12:40:53;18.50;;;12.80;;
26435;SDS011;15351;52.408;16.826;2024-02-14T12:43:20;18.00;;;12.90;;
26435;SDS011;15351;52.408;16.826;2024-02-14T12:45:50;19.60;;;13.10;;
26435;SDS011;15351;52.408;16.826;2024-02-14T12:48:23;22.20;;;14.90;;
26435;SDS011;15351;52.408;16.826;2024-02-14T12:50:56;23.30;;;15.90;;
26435;SDS011;15351;52.408;16.826;2024-02-14T12:53:23;24.50;;;16.00;;
26435;SDS011;15351;52.408;16.826;2024-02-14T12:55:52;25.40;;;16.30;;
26435;SDS011;15351;52.408;16.826;2024-02-14T12:58:21;22.70;;;14.80;;
26435;SDS011;15351;52.408;16.826;2024-02-14T13:00:50;21.20;;;14.50;;
26435;SDS011;15351;52.408;16.826;2024-02-14T13:03:18;21.60;;;14.20;;
26435;SDS011;15351;52.408;16.826;2024-02-14T13:05:48;21.30;;;14.70;;
26435;SDS011;15351;52.408;16.826;2024-02-14T13:08:15;20.50;;;13.70;;
26435;SDS011;15351;52.408;16.826;2024-02-14T13:13:23;23.20;;;14.20;;
26435;SDS011;15351;52.408;16.826;2024-02-14T13:15:56;19.40;;;13.70;;
26435;SDS011;15351;52.408;16.826;2024-02-14T13:18:22;21.10;;;13.40;;
26435;SDS011;15351;52.408;16.826;2024-02-14T13:20:50;21.50;;;14.40;;
26435;SDS011;15351;52.408;16.826;2024-02-14T13:23:32;21.20;;;13.60;;
26435;SDS011;15351;52.408;16.826;2024-02-14T13:26:12;21.20;;;13.70;;
26435;SDS011;15351;52.408;16.826;2024-02-14T13:28:41;20.70;;;13.90;;
26435;SDS011;15351;52.408;16.826;2024-02-14T13:31:10;20.90;;;13.90;;
26435;SDS011;15351;52.408;16.826;2024-02-14T13:33:39;24.80;;;14.00;;
26435;SDS011;15351;52.408;16.826;2024-02-14T13:36:07;20.50;;;14.00;;
26435;SDS011;15351;52.408;16.826;2024-02-14T13:38:34;21.30;;;13.90;;
26435;SDS011;15351;52.408;16.826;2024-02-14T13:41:02;21.20;;;14.20;;
26435;SDS011;15351;52.408;16.826;2024-02-14T13:43:30;22.40;;;14.40;;
26435;SDS011;15351;52.408;16.826;2024-02-14T13:45:58;20.80;;;13.90;;
26435;SDS011;15351;52.408;16.826;2024-02-14T13:48:25;21.00;;;14.60;;
26435;SDS011;15351;52.408;16.826;2024-02-14T13:50:53;22.20;;;14.70;;
26435;SDS011;15351;52.408;16.826;2024-02-14T13:53:19;21.70;;;14.80;;
26435;SDS011;15351;52.408;16.826;2024-02-14T13:55:51;24.10;;;15.10;;
26435;SDS011;15351;52.408;16.826;2024-02-14T13:58:23;21.90;;;15.10;;
26435;SDS011;15351;52.408;16.826;2024-02-14T14:00:57;24.70;;;14.60;;
26435;SDS011;15351;52.408;16.826;2024-02-14T14:03:30;23.40;;;15.40;;
26435;SDS011;15351;52.408;16.826;2024-02-14T14:05:58;22.60;;;15.20;;
26435;SDS011;15351;52.408;16.826;2024-02-14T14:08:33;22.70;;;15.00;;
26435;SDS011;15351;52.408;16.826;2024-02-14T14:11:03;22.80;;;15.40;;
26435;SDS011;15351;52.408;16.826;2024-02-14T14:13:35;23.40;;;15.70;;
26435;SDS011;15351;52.408;16.826;2024-02-14T14:16:06;23.80;;;15.90;;
26435;SDS011;15351;52.408;16.826;2024-02-14T14:19:08;24.60;;;16.00;;
26435;SDS011;15351;52.408;16.826;2024-02-14T14:21:37;22.80;;;15.60;;
26435;SDS011;15351;52.408;16.826;2024-02-14T14:24:07;23.20;;;15.50;;
26435;SDS011;15351;52.408;16.826;2024-02-14T14:26:42;24.20;;;16.40;;
26435;SDS011;15351;52.408;16.826;2024-02-14T14:29:09;24.60;;;16.00;;
26435;SDS011;15351;52.408;16.826;2024-02-14T14:31:38;26.70;;;16.30;;
26435;SDS011;15351;52.408;16.826;2024-02-14T14:34:13;26.80;;;16.70;;
26435;SDS011;15351;52.408;16.826;2024-02-14T14:36:49;28.70;;;16.40;;
26435;SDS011;15351;52.408;16.826;2024-02-14T14:39:43;24.00;;;16.30;;
26435;SDS011;15351;52.408;16.826;2024-02-14T14:42:11;26.30;;;17.60;;
26435;SDS011;15351;52.408;16.826;2024-02-14T14:44:38;24.30;;;16.40;;
26435;SDS011;15351;52.408;16.826;2024-02-14T14:47:06;23.80;;;16.90;;
26435;SDS011;15351;52.408;16.826;2024-02-14T14:49:33;25.70;;;17.60;;
26435;SDS011;15351;52.408;16.826;2024-02-14T14:52:07;24.70;;;17.80;;
26435;SDS011;15351;52.408;16.826;2024-02-14T14:54:34;23.70;;;16.40;;
26435;SDS011;15351;52.408;16.826;2024-02-14T14:57:03;25.20;;;16.60;;
26435;SDS011;15351;52.408;16.826;2024-02-14T14:59:43;25.40;;;17.50;;
26435;SDS011;15351;52.408;16.826;2024-02-14T15:02:32;27.40;;;18.00;;
26435;SDS011;15351;52.408;16.826;2024-02-14T15:05:09;26.20;;;17.80;;
26435;SDS011;15351;52.408;16.826;2024-02-14T15:07:37;24.90;;;17.70;;
26435;SDS011;15351;52.408;16.826;2024-02-14T15:10:05;25.50;;;17.60;;
26435;SDS011;15351;52.408;16.826;2024-02-14T15:12:33;27.20;;;18.00;;